Port Saunders, Canada
Current Conditions -  °F | °C
As of 10:00 PM on Sunday 21 Dec 2014 (Local Time) from CWDH Reporting Station
Overcast Overcast  
Wind Chill: -6°   Ceiling: 1700
Heat Index: -3°   Visibility: 9mi
Dew Point: -7°   Wind: 5mph
Humidity: 75%   Direction: 230°SW
Pressure: 30.34"   Gusts: NA
Location:  50.65°N, 57.27°W
Report Text: CWDH 220100Z AUTO 23004KT 9SM OVC017 M03/M06 A3034 RMK SLP274 T10261065 WSI/SWOB
Loading
Personal Weather Stations






























Interactive Weather Map New forecast layout! Learn more

10-Day Weather Forecast

Advertisements
Track Severe Weather on mobile